Aeroboteco Virtual Airlines! Uma nuvem a frente.



 INFORMAÇÕES METEOROLÓGICAS
METAR FOR SBSG
ADDS - METARS form results

(0046 UTC 20 March 2019)
Data provider http://aviationweather.gov/metar/data/
 
METAR text: SBSG 200000Z 04005KT 9999 FEW021 27/25 Q1011
Conditions at: SBSG (NATAL , BR) observed 0000 UTC 20 March 2019
Temperature: 27.0°C (81°F)
Dewpoint: 25.0°C (77°F) [RH = 89%]
Pressure (altimeter): 29.85 inches Hg (1011.0 mb)
Winds: from the NE (40 degrees) at 6 MPH (5 knots; 2.6 m/s)
Visibility: 6 or more miles (10+ km)
Ceiling: at least 12,000 feet AGL
Clouds: few clouds at 2100 feet AGL
Weather: no significant weather observed at this time

 MAPA DO AEROPORTO

 INFORMAÇÕES DA PISTA
Pista 12 Tamanho da pista 9843 ft Largura da pista 197 ft
Elevação da pista 273 ft Ranhura da pista 0 ft Proa da pista 99
Pista 30 Tamanho da pista 9843 ft Largura da pista 197 ft
Elevação da pista 264 ft Ranhura da pista 0 ft Proa da pista 279

 FREQUÊNCIAS DO AEROPORTO
Tipo ATIS Nome Frequência 127.6 MHZ
Tipo ILS Nome Frequência 109.7 MHZ
Tipo TWR Nome Frequência 118.2 MHZ

 AUXÍLIOS DE NAVEGAÇÃO PRÓXIMOS AO AEROPORTO